TimeEST,TemperatureF,Dew PointF,Humidity,Sea Level PressureIn,VisibilityMPH,Wind Direction,Wind SpeedMPH,Gust SpeedMPH,PrecipitationIn,Events,Conditions,WindDirDegrees,DateUTC
12:51 AM,41.0,24.1,51,29.97,10.0,West,16.1,25.3,N/A,,Overcast,270,2013-02-12 05:51:00
1:51 AM,39.9,23.0,51,29.99,10.0,West,12.7,25.3,N/A,,Overcast,270,2013-02-12 06:51:00
2:51 AM,39.0,21.9,50,30.00,10.0,West,11.5,21.9,N/A,,Mostly Cloudy,280,2013-02-12 07:51:00
3:51 AM,37.9,21.9,53,30.02,10.0,West,13.8,24.2,N/A,,Overcast,270,2013-02-12 08:51:00
4:51 AM,37.0,21.9,54,30.04,10.0,West,15.0,24.2,N/A,,Mostly Cloudy,270,2013-02-12 09:51:00
5:51 AM,36.0,21.9,57,30.06,10.0,WSW,8.1,18.4,N/A,,Partly Cloudy,250,2013-02-12 10:51:00
6:51 AM,35.1,23.0,61,30.08,10.0,WSW,12.7,20.7,N/A,,Clear,250,2013-02-12 11:51:00
7:51 AM,34.0,21.9,61,30.09,10.0,WSW,6.9,16.1,N/A,,Clear,250,2013-02-12 12:51:00
8:51 AM,35.1,21.9,59,30.12,10.0,West,11.5,19.6,N/A,,Clear,260,2013-02-12 13:51:00
9:51 AM,37.0,21.9,54,30.12,10.0,WSW,10.4,19.6,N/A,,Clear,240,2013-02-12 14:51:00
10:51 AM,39.9,21.0,47,30.11,10.0,SW,10.4,18.4,N/A,,Clear,220,2013-02-12 15:51:00
11:51 AM,44.1,19.9,38,30.08,10.0,West,9.2,19.6,N/A,,Clear,270,2013-02-12 16:51:00
12:51 PM,46.0,19.9,35,30.02,10.0,WNW,8.1,16.1,N/A,,Clear,300,2013-02-12 17:51:00
1:51 PM,46.9,19.0,33,29.94,10.0,West,8.1,-,N/A,,Clear,260,2013-02-12 18:51:00
2:51 PM,48.9,21.0,33,30.01,10.0,West,12.7,18.4,N/A,,Clear,260,2013-02-12 19:51:00
3:51 PM,48.9,19.0,31,30.01,10.0,WSW,11.5,18.4,N/A,,Clear,250,2013-02-12 20:51:00
4:51 PM,46.0,18.0,33,30.01,10.0,WSW,6.9,-,N/A,,Clear,250,2013-02-12 21:51:00
5:51 PM,44.1,17.1,34,30.03,10.0,Calm,Calm,-,N/A,,Clear,0,2013-02-12 22:51:00
6:51 PM,39.9,18.0,41,30.02,10.0,Calm,Calm,-,N/A,,Clear,0,2013-02-12 23:51:00
7:51 PM,32.0,19.9,61,30.00,10.0,Calm,Calm,-,N/A,,Clear,0,2013-02-13 00:51:00
8:51 PM,28.9,21.9,75,30.01,10.0,Calm,Calm,-,N/A,,Clear,0,2013-02-13 01:51:00
9:51 PM,30.0,23.0,75,30.00,10.0,Calm,Calm,-,N/A,,Clear,0,2013-02-13 02:51:00
10:51 PM,28.0,21.9,78,29.99,10.0,Calm,Calm,-,N/A,,Clear,0,2013-02-13 03:51:00
11:51 PM,26.1,21.0,81,29.99,10.0,Calm,Calm,-,N/A,,Clear,0,2013-02-13 04:51:00